Time;durP1;ratioP1;P1;durP2;ratioP2;P2;SDS_P1;SDS_P2;PMS_P1;PMS_P2;Temp;Humidity;BMP_temperature;BMP_pressure;BME280_temperature;BME280_humidity;BME280_pressure;Samples;Min_cycle;Max_cycle;Signal;HPM_P1;HPM_P2
2023/12/07 00:00:32;;;;;;;3.17;1.90;;;3.30;95.20;;;;;;6065001;23;20002;-79
2023/12/07 00:02:59;;;;;;;2.88;2.20;;;3.30;95.20;;;;;;6092659;23;20007;-79
2023/12/07 00:05:25;;;;;;;2.90;2.10;;;3.20;95.50;;;;;;6066562;23;20010;-78
2023/12/07 00:07:50;;;;;;;3.03;2.35;;;3.20;95.20;;;;;;6093867;23;20018;-78
2023/12/07 00:10:16;;;;;;;3.08;2.15;;;3.20;95.10;;;;;;6092814;23;20054;-79
2023/12/07 00:12:41;;;;;;;3.75;2.25;;;3.10;95.10;;;;;;6091711;23;20010;-79
2023/12/07 00:15:07;;;;;;;2.95;2.00;;;3.10;95.20;;;;;;6066143;23;20010;-78
2023/12/07 00:17:33;;;;;;;3.05;2.22;;;3.00;95.30;;;;;;6090744;23;20078;-78
2023/12/07 00:19:58;;;;;;;3.80;2.30;;;3.00;95.40;;;;;;6065150;23;20055;-78
2023/12/07 00:22:25;;;;;;;3.10;2.20;;;3.00;95.40;;;;;;6112663;23;20012;-78
2023/12/07 00:24:51;;;;;;;2.90;2.13;;;3.00;95.40;;;;;;6121358;23;20025;-76
2023/12/07 00:27:16;;;;;;;3.22;2.15;;;3.00;95.60;;;;;;6094193;23;20012;-79
2023/12/07 00:29:42;;;;;;;3.22;2.22;;;3.00;95.40;;;;;;6095002;23;20017;-78
2023/12/07 00:32:07;;;;;;;2.60;2.10;;;3.00;95.30;;;;;;6094865;23;20006;-76
2023/12/07 00:34:33;;;;;;;3.20;2.10;;;3.00;95.30;;;;;;6120579;23;20072;-78
2023/12/07 00:36:58;;;;;;;3.10;2.10;;;3.00;95.30;;;;;;6093308;23;20005;-78
2023/12/07 00:39:24;;;;;;;2.45;1.88;;;3.00;95.40;;;;;;6120506;23;20400;-78
2023/12/07 00:41:49;;;;;;;2.38;1.80;;;3.00;95.30;;;;;;6094904;23;20352;-77
2023/12/07 00:44:15;;;;;;;3.30;2.05;;;3.00;95.40;;;;;;6120965;23;20601;-79
2023/12/07 00:46:40;;;;;;;4.13;1.98;;;3.00;95.30;;;;;;6119939;23;20002;-79
2023/12/07 00:49:06;;;;;;;2.80;1.85;;;3.00;95.30;;;;;;6094563;23;20032;-78
2023/12/07 00:51:32;;;;;;;3.63;2.10;;;3.10;95.30;;;;;;6120752;23;20332;-80
2023/12/07 00:53:58;;;;;;;3.30;2.00;;;3.10;95.20;;;;;;6121169;23;20137;-78
2023/12/07 00:56:24;;;;;;;3.15;2.13;;;3.00;95.00;;;;;;6094506;23;20002;-79
2023/12/07 00:58:50;;;;;;;3.63;2.40;;;3.00;95.20;;;;;;6094253;23;20013;-77
2023/12/07 01:01:16;;;;;;;3.22;2.25;;;3.00;95.10;;;;;;6122873;23;20006;-80
2023/12/07 01:03:41;;;;;;;2.90;2.00;;;2.90;95.10;;;;;;6122404;23;20048;-79
2023/12/07 01:06:07;;;;;;;3.38;2.38;;;2.90;95.10;;;;;;6122990;23;20084;-82
2023/12/07 01:08:33;;;;;;;2.75;2.00;;;2.90;95.20;;;;;;6098503;23;19998;-80
2023/12/07 01:10:59;;;;;;;3.17;2.10;;;2.80;95.20;;;;;;6123164;23;20073;-80
2023/12/07 01:13:24;;;;;;;4.45;2.45;;;2.80;95.30;;;;;;6123646;23;20024;-79
2023/12/07 01:15:50;;;;;;;3.03;2.03;;;2.80;95.30;;;;;;6122526;23;20002;-80
2023/12/07 01:18:16;;;;;;;2.22;1.83;;;2.80;95.30;;;;;;6097305;23;20025;-81
2023/12/07 01:20:42;;;;;;;2.63;2.00;;;2.80;95.40;;;;;;6096946;23;20440;-78
2023/12/07 01:23:08;;;;;;;3.00;2.20;;;2.70;95.40;;;;;;6097237;23;20013;-82
2023/12/07 01:25:34;;;;;;;2.35;1.80;;;2.80;95.40;;;;;;6097678;23;20014;-79
2023/12/07 01:28:00;;;;;;;2.78;2.03;;;2.80;95.40;;;;;;6122735;23;20491;-79
2023/12/07 01:30:25;;;;;;;2.50;2.00;;;2.80;95.20;;;;;;6121735;23;20628;-78
2023/12/07 01:32:51;;;;;;;3.50;2.08;;;2.80;95.20;;;;;;6122753;23;20066;-78
2023/12/07 01:35:16;;;;;;;2.88;1.98;;;2.80;95.10;;;;;;6122463;23;20002;-79
2023/12/07 01:37:42;;;;;;;2.17;1.80;;;2.80;95.10;;;;;;6121689;23;20002;-79
2023/12/07 01:40:10;;;;;;;3.20;2.20;;;2.80;95.30;;;;;;6124103;23;20052;-80
2023/12/07 01:42:39;;;;;;;3.40;2.00;;;2.80;95.20;;;;;;6098135;23;20006;-78
2023/12/07 01:45:05;;;;;;;2.63;2.00;;;2.70;95.10;;;;;;6124316;23;20012;-79
2023/12/07 01:47:32;;;;;;;2.97;2.00;;;2.70;95.30;;;;;;6096261;23;20653;-79
2023/12/07 01:49:59;;;;;;;3.05;2.05;;;2.70;95.30;;;;;;6123421;23;20069;-78
2023/12/07 01:52:27;;;;;;;3.53;2.03;;;2.70;95.30;;;;;;6096672;23;20029;-80
2023/12/07 01:54:54;;;;;;;2.90;2.40;;;2.70;95.10;;;;;;6124427;23;20009;-79
2023/12/07 01:57:20;;;;;;;2.95;2.25;;;2.60;95.10;;;;;;6097067;23;20032;-79
2023/12/07 01:59:46;;;;;;;3.83;2.40;;;2.60;95.20;;;;;;6097169;23;20002;-79
2023/12/07 02:02:12;;;;;;;5.00;2.55;;;2.60;95.20;;;;;;6097443;23;20101;-80
2023/12/07 02:04:38;;;;;;;5.82;3.08;;;2.60;95.20;;;;;;6123125;23;20035;-80
2023/12/07 02:07:05;;;;;;;3.75;2.45;;;2.50;95.30;;;;;;6100028;23;20013;-79
2023/12/07 02:09:31;;;;;;;4.43;2.60;;;2.50;95.30;;;;;;6127079;23;20017;-80
2023/12/07 02:11:57;;;;;;;4.95;3.10;;;2.50;95.40;;;;;;6112313;23;20002;-80
2023/12/07 02:14:23;;;;;;;3.22;2.42;;;2.50;95.30;;;;;;6110741;23;20524;-80
2023/12/07 02:16:54;;;;;;;2.88;2.05;;;2.50;95.30;;;;;;6102915;23;20002;-79
2023/12/07 02:19:48;;;;;;;3.47;2.37;;;2.50;95.30;;;;;;6129310;23;20074;-81
2023/12/07 02:22:26;;;;;;;3.33;2.17;;;2.50;95.30;;;;;;6129408;23;20316;-80
2023/12/07 02:25:23;;;;;;;3.22;2.15;;;2.60;95.20;;;;;;6129677;23;20009;-80
2023/12/07 02:27:49;;;;;;;6.95;2.30;;;2.60;95.30;;;;;;6125891;23;20606;-80
2023/12/07 02:30:14;;;;;;;4.57;2.38;;;2.60;95.00;;;;;;6100990;23;20058;-80
2023/12/07 02:32:43;;;;;;;3.25;2.20;;;2.60;95.20;;;;;;6098677;23;20017;-80
2023/12/07 02:35:12;;;;;;;2.88;2.20;;;2.60;95.20;;;;;;6121779;23;20013;-77
2023/12/07 02:37:43;;;;;;;3.55;2.30;;;2.60;95.10;;;;;;6100386;23;20369;-79
2023/12/07 02:40:10;;;;;;;3.47;2.10;;;2.60;95.10;;;;;;6099323;23;20544;-81
2023/12/07 02:42:38;;;;;;;3.20;2.30;;;2.70;95.00;;;;;;6101688;23;20527;-81
2023/12/07 02:45:04;;;;;;;2.85;2.10;;;2.70;94.90;;;;;;6102438;23;20013;-81
2023/12/07 02:47:30;;;;;;;2.45;1.90;;;2.70;94.90;;;;;;6102657;23;20017;-79
2023/12/07 02:49:56;;;;;;;3.72;2.30;;;2.80;95.00;;;;;;6101213;23;20006;-80
2023/12/07 02:52:21;;;;;;;2.78;1.92;;;2.90;95.00;;;;;;6126788;23;20012;-82
2023/12/07 02:54:48;;;;;;;2.42;1.90;;;2.90;94.80;;;;;;6101352;23;20058;-79
2023/12/07 02:57:14;;;;;;;2.67;2.05;;;2.90;94.80;;;;;;6125868;23;20099;-81
2023/12/07 02:59:40;;;;;;;3.00;1.90;;;3.00;94.80;;;;;;6099429;23;20009;-82
2023/12/07 03:02:06;;;;;;;3.75;2.78;;;3.00;94.70;;;;;;6126932;23;19998;-80
2023/12/07 03:04:32;;;;;;;2.72;2.17;;;3.00;94.70;;;;;;6101317;23;20033;-78
2023/12/07 03:06:58;;;;;;;4.20;2.50;;;3.00;94.70;;;;;;6127365;23;20014;-81
2023/12/07 03:09:24;;;;;;;6.72;2.20;;;3.00;94.60;;;;;;6126402;23;20009;-80
2023/12/07 03:11:50;;;;;;;2.40;1.90;;;3.00;94.70;;;;;;6126300;23;20025;-80
2023/12/07 03:14:16;;;;;;;2.67;2.10;;;3.00;94.60;;;;;;6125665;23;20053;-80
2023/12/07 03:16:41;;;;;;;2.63;2.10;;;3.00;94.70;;;;;;6099435;23;20009;-80
2023/12/07 03:19:07;;;;;;;2.60;2.00;;;3.00;94.70;;;;;;6099734;23;20002;-79
2023/12/07 03:21:32;;;;;;;3.45;2.30;;;3.00;94.80;;;;;;6126467;23;20049;-80
2023/12/07 03:23:58;;;;;;;2.95;2.28;;;3.00;94.80;;;;;;6125610;23;20094;-80
2023/12/07 03:26:23;;;;;;;4.47;2.90;;;3.10;94.90;;;;;;6124964;23;20348;-80
2023/12/07 03:28:49;;;;;;;4.43;2.90;;;3.10;94.90;;;;;;6098889;23;20006;-80
2023/12/07 03:31:14;;;;;;;4.90;3.47;;;3.10;94.80;;;;;;6124796;23;20341;-78
2023/12/07 03:33:42;;;;;;;5.15;3.30;;;3.10;94.90;;;;;;6099299;23;20440;-82
2023/12/07 03:36:11;;;;;;;5.07;3.30;;;3.10;94.80;;;;;;6102035;23;20077;-80
2023/12/07 03:38:37;;;;;;;8.35;4.68;;;3.10;94.90;;;;;;6103871;23;20006;-78
2023/12/07 03:41:03;;;;;;;4.93;3.40;;;3.10;94.80;;;;;;6102184;23;20347;-81
2023/12/07 03:43:29;;;;;;;5.78;3.80;;;3.10;94.80;;;;;;6102169;23;20009;-80
2023/12/07 03:45:54;;;;;;;7.03;3.85;;;3.10;94.80;;;;;;6127212;23;20002;-79
2023/12/07 03:48:20;;;;;;;6.38;4.00;;;3.20;94.90;;;;;;6099274;23;20009;-81
2023/12/07 03:50:46;;;;;;;5.10;3.60;;;3.20;94.90;;;;;;6098845;23;20089;-79
2023/12/07 03:53:12;;;;;;;4.22;2.88;;;3.20;94.90;;;;;;6125904;23;20002;-80
2023/12/07 03:55:38;;;;;;;4.80;3.20;;;3.30;94.90;;;;;;6100432;23;20359;-80
2023/12/07 03:58:04;;;;;;;4.30;2.80;;;3.30;94.80;;;;;;6124010;23;20076;-80
2023/12/07 04:00:32;;;;;;;4.55;3.00;;;3.30;94.80;;;;;;6098486;23;19998;-78
2023/12/07 04:02:57;;;;;;;7.68;4.35;;;3.40;94.80;;;;;;6098113;23;20025;-79
2023/12/07 04:05:23;;;;;;;5.25;3.67;;;3.40;94.80;;;;;;6124898;23;20014;-80
2023/12/07 04:07:48;;;;;;;6.05;4.00;;;3.40;94.90;;;;;;6126142;23;20014;-82
2023/12/07 04:10:14;;;;;;;4.45;3.17;;;3.40;95.10;;;;;;6126020;23;20001;-78
2023/12/07 04:12:40;;;;;;;4.82;3.10;;;3.50;94.80;;;;;;6098610;23;20013;-80
2023/12/07 04:15:06;;;;;;;5.55;3.60;;;3.50;94.80;;;;;;6097586;23;20021;-79
2023/12/07 04:17:31;;;;;;;5.15;3.17;;;3.40;94.90;;;;;;6123800;23;20041;-80
2023/12/07 04:19:57;;;;;;;3.13;2.60;;;3.50;94.90;;;;;;6122306;23;20002;-78
2023/12/07 04:22:23;;;;;;;3.53;2.47;;;3.50;94.90;;;;;;6095354;23;20021;-80
2023/12/07 04:24:48;;;;;;;5.43;3.60;;;3.50;94.90;;;;;;6095214;23;20085;-81
2023/12/07 04:27:15;;;;;;;3.55;2.58;;;3.50;94.90;;;;;;6121915;23;20022;-80
2023/12/07 04:29:41;;;;;;;3.40;2.70;;;3.50;95.00;;;;;;6095572;23;20333;-80
2023/12/07 04:32:07;;;;;;;6.25;3.97;;;3.50;95.10;;;;;;6121342;23;20006;-79
2023/12/07 04:34:33;;;;;;;5.13;3.30;;;3.50;95.10;;;;;;6096543;23;20529;-81
2023/12/07 04:36:59;;;;;;;5.18;2.90;;;3.50;95.10;;;;;;6122163;23;19998;-80
2023/12/07 04:39:24;;;;;;;4.32;3.00;;;3.50;95.00;;;;;;6096675;23;20029;-81
2023/12/07 04:41:51;;;;;;;6.18;3.25;;;3.50;95.00;;;;;;6095707;23;20002;-79
2023/12/07 04:44:16;;;;;;;6.72;3.90;;;3.50;95.10;;;;;;6096165;23;20002;-80
2023/12/07 04:46:42;;;;;;;10.75;5.65;;;3.50;95.10;;;;;;6094639;23;20057;-80
2023/12/07 04:49:08;;;;;;;6.50;4.07;;;3.40;95.00;;;;;;6095822;23;20009;-79
2023/12/07 04:51:34;;;;;;;5.25;3.40;;;3.40;95.10;;;;;;6122937;23;20494;-80
2023/12/07 04:54:00;;;;;;;6.82;3.80;;;3.40;95.20;;;;;;6096112;23;20013;-79
2023/12/07 04:56:25;;;;;;;4.70;3.20;;;3.30;95.10;;;;;;6096378;23;20006;-80
2023/12/07 04:58:51;;;;;;;5.03;3.03;;;3.40;95.10;;;;;;6095062;23;20006;-79
2023/12/07 05:01:18;;;;;;;9.40;4.55;;;3.30;95.10;;;;;;6095003;23;20009;-80
2023/12/07 05:03:44;;;;;;;7.63;3.42;;;3.30;95.10;;;;;;6096000;23;20495;-80
2023/12/07 05:06:10;;;;;;;8.05;4.22;;;3.20;95.20;;;;;;6122629;23;20076;-80
2023/12/07 05:08:35;;;;;;;10.15;4.03;;;3.20;95.20;;;;;;6096488;23;20005;-79
2023/12/07 05:11:01;;;;;;;7.38;2.88;;;3.20;95.30;;;;;;6095785;23;20010;-79
2023/12/07 05:13:26;;;;;;;3.67;2.50;;;3.10;95.30;;;;;;6122309;23;20009;-77
2023/12/07 05:15:52;;;;;;;7.90;2.80;;;3.10;95.30;;;;;;6095683;23;20006;-79
2023/12/07 05:18:18;;;;;;;8.30;4.00;;;3.10;95.30;;;;;;6121866;23;20033;-79
2023/12/07 05:20:43;;;;;;;6.93;4.20;;;3.00;95.40;;;;;;6122520;23;19998;-79
2023/12/07 05:23:09;;;;;;;5.32;2.97;;;3.00;95.40;;;;;;6061845;23;20023;-78
2023/12/07 05:25:34;;;;;;;6.47;3.10;;;3.00;95.50;;;;;;6062518;23;20089;-78
2023/12/07 05:28:00;;;;;;;5.82;3.22;;;3.00;95.50;;;;;;6061563;23;20090;-77
2023/12/07 05:30:25;;;;;;;9.63;4.95;;;3.10;95.50;;;;;;6064520;23;20007;-76
2023/12/07 05:32:51;;;;;;;5.50;3.25;;;3.00;95.40;;;;;;6039511;23;20796;-78
2023/12/07 05:35:17;;;;;;;6.15;3.40;;;3.00;95.40;;;;;;6033288;23;20082;-79
2023/12/07 05:37:42;;;;;;;8.52;4.22;;;3.00;95.40;;;;;;6033613;23;20079;-78
2023/12/07 05:40:09;;;;;;;5.40;3.67;;;2.90;95.40;;;;;;6034416;23;20003;-77
2023/12/07 05:42:35;;;;;;;4.10;2.83;;;2.90;95.40;;;;;;6037428;23;20000;-80
2023/12/07 05:45:00;;;;;;;8.25;2.80;;;2.90;95.50;;;;;;6037758;23;20018;-80
2023/12/07 05:47:26;;;;;;;3.33;2.40;;;2.80;95.40;;;;;;6037743;23;20387;-79
2023/12/07 05:49:52;;;;;;;9.93;4.45;;;2.70;95.40;;;;;;6037334;23;20003;-80
2023/12/07 05:52:17;;;;;;;5.25;3.50;;;2.70;95.60;;;;;;6036953;23;20035;-80
2023/12/07 05:54:46;;;;;;;7.53;3.90;;;2.70;95.80;;;;;;6037169;23;20011;-81
2023/12/07 05:57:12;;;;;;;7.00;3.85;;;2.60;95.80;;;;;;6036552;23;20003;-81
2023/12/07 05:59:38;;;;;;;6.10;3.38;;;2.70;95.90;;;;;;6035408;23;20382;-81
2023/12/07 06:02:04;;;;;;;10.40;4.90;;;2.70;95.90;;;;;;6037000;23;20003;-80
2023/12/07 06:04:30;;;;;;;12.50;5.53;;;2.60;95.80;;;;;;6036226;23;20082;-78
2023/12/07 06:06:56;;;;;;;7.97;4.78;;;2.50;95.80;;;;;;6033753;23;20003;-79
2023/12/07 06:09:22;;;;;;;6.53;4.40;;;2.40;95.90;;;;;;6038344;23;20037;-81
2023/12/07 06:11:48;;;;;;;10.60;4.20;;;2.40;95.90;;;;;;6040507;23;20437;-80
2023/12/07 06:14:13;;;;;;;5.65;3.50;;;2.50;96.00;;;;;;6041067;23;20064;-80
2023/12/07 06:16:39;;;;;;;8.27;5.30;;;2.50;96.10;;;;;;6039369;23;20497;-80
2023/12/07 06:19:05;;;;;;;17.60;6.63;;;2.40;95.90;;;;;;6040539;23;20292;-81
2023/12/07 06:21:31;;;;;;;10.25;5.50;;;2.40;95.90;;;;;;6039174;23;20059;-80
2023/12/07 06:23:56;;;;;;;9.27;4.30;;;2.30;96.00;;;;;;6039038;23;20003;-79
2023/12/07 06:26:22;;;;;;;9.52;5.28;;;2.40;96.10;;;;;;6037398;23;20034;-80
2023/12/07 06:28:48;;;;;;;7.75;4.55;;;2.30;96.10;;;;;;6039547;23;20070;-83
2023/12/07 06:31:19;;;;;;;5.18;3.40;;;2.30;96.10;;;;;;6039131;23;20006;-81
2023/12/07 06:33:45;;;;;;;4.78;3.20;;;2.40;96.10;;;;;;6038983;23;20326;-81
2023/12/07 06:36:11;;;;;;;10.50;5.50;;;2.40;96.00;;;;;;6038615;23;20019;-82
2023/12/07 06:38:37;;;;;;;8.55;5.40;;;2.30;96.00;;;;;;6038440;23;20010;-80
2023/12/07 06:41:03;;;;;;;6.05;3.80;;;2.20;96.20;;;;;;6039020;23;20054;-81
2023/12/07 06:43:29;;;;;;;7.03;4.32;;;2.20;96.40;;;;;;6038462;23;19999;-82
2023/12/07 06:45:54;;;;;;;6.38;4.00;;;2.30;96.40;;;;;;6039162;23;20453;-82
2023/12/07 06:48:20;;;;;;;8.13;5.00;;;2.20;96.30;;;;;;6038250;23;20011;-82
2023/12/07 06:50:46;;;;;;;10.18;5.35;;;2.20;96.30;;;;;;6039393;23;20007;-82
2023/12/07 06:53:11;;;;;;;14.02;5.13;;;2.20;96.40;;;;;;6039025;23;20474;-81
2023/12/07 06:55:37;;;;;;;8.07;4.53;;;2.20;96.40;;;;;;6037131;23;20097;-80
2023/12/07 06:58:02;;;;;;;5.50;4.00;;;2.20;96.50;;;;;;6037993;23;20046;-84
2023/12/07 07:00:28;;;;;;;6.35;3.65;;;2.10;96.50;;;;;;6037724;23;20042;-83
2023/12/07 07:02:54;;;;;;;7.43;3.40;;;2.00;96.50;;;;;;6038170;23;20030;-81
2023/12/07 07:05:19;;;;;;;4.53;2.90;;;2.00;96.80;;;;;;6038555;23;20007;-82
2023/12/07 07:07:45;;;;;;;5.20;3.78;;;2.10;96.90;;;;;;6036842;23;20007;-82
2023/12/07 07:10:12;;;;;;;5.72;3.83;;;2.10;97.00;;;;;;6038495;23;20433;-83
2023/12/07 07:12:37;;;;;;;9.63;5.35;;;2.20;97.00;;;;;;6038545;23;20357;-81
2023/12/07 07:15:03;;;;;;;10.15;5.88;;;2.20;96.90;;;;;;6040707;23;20067;-80
2023/12/07 07:17:29;;;;;;;8.32;4.47;;;2.10;96.90;;;;;;6040695;23;19999;-81
2023/12/07 07:19:55;;;;;;;6.03;3.83;;;2.10;96.90;;;;;;6038771;23;20006;-81
2023/12/07 07:22:21;;;;;;;9.07;4.90;;;2.10;96.90;;;;;;6053859;23;20038;-79
2023/12/07 07:24:47;;;;;;;13.88;5.35;;;2.10;96.80;;;;;;6045704;23;20523;-81
2023/12/07 07:27:13;;;;;;;9.45;5.35;;;2.10;96.80;;;;;;6041876;23;20007;-82
2023/12/07 07:29:38;;;;;;;7.45;4.28;;;2.10;96.90;;;;;;6075134;23;20029;-80
2023/12/07 07:32:05;;;;;;;6.00;4.07;;;2.10;96.90;;;;;;6082261;23;20007;-80
2023/12/07 07:34:31;;;;;;;4.50;3.03;;;2.10;97.00;;;;;;6049535;23;20027;-80
2023/12/07 07:36:56;;;;;;;7.20;3.38;;;2.10;96.90;;;;;;6045065;23;20007;-81
2023/12/07 07:39:22;;;;;;;4.68;3.30;;;2.20;97.00;;;;;;6066542;23;20027;-80
2023/12/07 07:41:47;;;;;;;3.80;2.85;;;2.20;96.90;;;;;;6042918;23;20003;-81
2023/12/07 07:44:13;;;;;;;6.40;3.70;;;2.20;97.00;;;;;;6044582;23;20014;-79
2023/12/07 07:46:46;;;;;;;5.57;3.80;;;2.00;97.00;;;;;;6043973;23;20017;-81
2023/12/07 07:49:11;;;;;;;3.72;2.78;;;2.00;97.30;;;;;;6069489;23;20007;-81
2023/12/07 07:51:38;;;;;;;5.88;3.55;;;2.10;97.50;;;;;;6043871;23;20133;-80
2023/12/07 07:54:04;;;;;;;4.22;3.20;;;2.10;97.40;;;;;;6043927;23;20065;-81
2023/12/07 07:56:29;;;;;;;5.68;3.80;;;2.10;97.30;;;;;;6068942;23;20081;-80
2023/12/07 07:58:55;;;;;;;5.25;3.53;;;2.00;97.20;;;;;;6069402;23;20006;-81
2023/12/07 08:01:20;;;;;;;4.28;3.10;;;2.10;97.50;;;;;;6042945;23;20007;-80
2023/12/07 08:03:46;;;;;;;10.63;4.25;;;1.90;97.50;;;;;;6040210;23;20122;-77
2023/12/07 08:06:12;;;;;;;5.55;3.60;;;2.00;97.60;;;;;;6043034;23;20014;-81
2023/12/07 08:08:37;;;;;;;6.40;3.53;;;2.00;97.60;;;;;;6067835;23;20003;-80
2023/12/07 08:11:05;;;;;;;5.53;3.00;;;1.90;97.60;;;;;;6041156;23;20468;-80
2023/12/07 08:13:30;;;;;;;5.88;3.28;;;1.90;97.60;;;;;;6041747;23;20022;-81
2023/12/07 08:15:56;;;;;;;4.47;3.15;;;1.80;97.90;;;;;;6037026;23;20035;-80
2023/12/07 08:18:22;;;;;;;5.45;4.10;;;1.80;97.80;;;;;;6038281;23;20003;-80
2023/12/07 08:20:47;;;;;;;6.82;3.90;;;1.70;97.80;;;;;;6038805;23;19999;-78
2023/12/07 08:23:13;;;;;;;5.90;3.65;;;1.70;98.10;;;;;;6063575;23;20078;-80
2023/12/07 08:25:40;;;;;;;7.32;4.40;;;1.60;98.10;;;;;;6039469;23;20006;-80
2023/12/07 08:28:05;;;;;;;4.60;3.08;;;1.50;98.20;;;;;;6038199;23;20018;-79
2023/12/07 08:30:31;;;;;;;5.63;4.28;;;1.60;98.50;;;;;;6039852;23;20590;-79
2023/12/07 08:32:56;;;;;;;4.57;3.15;;;1.60;98.50;;;;;;6040295;23;20013;-79
2023/12/07 08:35:23;;;;;;;8.65;3.45;;;1.60;98.50;;;;;;6040211;23;20003;-79
2023/12/07 08:37:48;;;;;;;5.68;3.67;;;1.60;98.80;;;;;;6050172;23;19999;-79
2023/12/07 08:40:15;;;;;;;4.95;3.10;;;1.60;98.60;;;;;;6044079;23;19998;-81
2023/12/07 08:42:45;;;;;;;3.67;2.95;;;1.70;98.70;;;;;;6043971;23;20082;-80
2023/12/07 08:45:11;;;;;;;6.40;3.58;;;1.80;98.50;;;;;;6044379;23;20064;-81
2023/12/07 08:47:36;;;;;;;5.88;3.80;;;1.70;98.30;;;;;;6040196;23;20006;-79
2023/12/07 08:50:02;;;;;;;10.73;4.60;;;1.70;98.30;;;;;;6066789;23;20011;-80
2023/12/07 08:52:28;;;;;;;6.68;4.15;;;1.70;98.40;;;;;;6043228;23;20007;-80
2023/12/07 08:54:54;;;;;;;6.15;3.85;;;1.80;98.50;;;;;;6068747;23;20010;-79
2023/12/07 08:57:19;;;;;;;4.85;3.08;;;1.80;98.40;;;;;;6041003;23;20089;-79
2023/12/07 08:59:45;;;;;;;5.88;3.45;;;1.80;98.30;;;;;;6067675;23;19999;-79
2023/12/07 09:02:11;;;;;;;5.78;3.08;;;1.90;98.30;;;;;;6067191;23;20007;-81
2023/12/07 09:04:39;;;;;;;4.53;2.60;;;1.80;98.10;;;;;;6041474;23;20038;-79
2023/12/07 09:07:04;;;;;;;3.50;2.35;;;1.80;98.20;;;;;;6066353;23;20090;-79
2023/12/07 09:09:30;;;;;;;5.68;3.10;;;1.90;98.20;;;;;;6040724;23;20035;-79
2023/12/07 09:11:56;;;;;;;7.55;3.90;;;1.90;98.20;;;;;;6040668;23;20003;-77
2023/12/07 09:14:22;;;;;;;8.30;4.15;;;1.90;98.30;;;;;;6042601;23;20007;-80
2023/12/07 09:16:47;;;;;;;6.65;3.85;;;1.90;98.20;;;;;;6039867;23;20081;-80
2023/12/07 09:19:13;;;;;;;10.35;3.85;;;1.90;98.10;;;;;;6041948;23;20011;-81
2023/12/07 09:21:40;;;;;;;6.40;3.30;;;1.90;98.00;;;;;;6043737;23;20030;-81
2023/12/07 09:24:06;;;;;;;8.77;4.78;;;1.90;98.00;;;;;;6067366;23;20065;-82
2023/12/07 09:26:32;;;;;;;9.07;5.22;;;1.80;98.10;;;;;;6066131;23;20453;-82
2023/12/07 09:28:58;;;;;;;6.40;3.97;;;1.70;98.20;;;;;;6066512;23;20472;-82
2023/12/07 09:31:23;;;;;;;15.73;5.90;;;1.70;98.50;;;;;;6067600;23;20086;-81
2023/12/07 09:33:49;;;;;;;8.48;3.97;;;1.80;98.90;;;;;;6066181;23;20003;-80
2023/12/07 09:36:18;;;;;;;6.68;3.80;;;1.80;98.40;;;;;;6066193;23;20014;-80
2023/12/07 09:38:45;;;;;;;6.03;3.53;;;1.80;98.60;;;;;;6060642;23;20007;-79
2023/12/07 09:41:11;;;;;;;3.58;2.40;;;1.80;98.60;;;;;;6065667;23;20630;-82
2023/12/07 09:43:37;;;;;;;6.50;3.80;;;1.90;98.50;;;;;;6065528;23;20009;-82
2023/12/07 09:46:02;;;;;;;6.93;3.88;;;1.90;98.40;;;;;;6066450;23;20089;-80
2023/12/07 09:48:28;;;;;;;4.50;2.88;;;1.90;98.50;;;;;;6067676;23;20413;-82
2023/12/07 09:50:56;;;;;;;5.55;2.65;;;1.90;98.50;;;;;;6068587;23;20010;-82
2023/12/07 09:53:22;;;;;;;7.78;3.58;;;1.90;98.40;;;;;;6067011;23;20006;-83
2023/12/07 09:55:48;;;;;;;5.32;3.53;;;2.00;98.40;;;;;;6067236;23;20007;-81
2023/12/07 09:58:14;;;;;;;6.07;2.90;;;2.00;98.40;;;;;;6065242;23;20067;-83
2023/12/07 10:00:39;;;;;;;8.52;3.50;;;2.00;98.30;;;;;;6065990;23;20045;-82
2023/12/07 10:03:09;;;;;;;4.43;2.85;;;1.90;98.10;;;;;;6065885;23;20015;-83
2023/12/07 10:05:52;;;;;;;4.07;2.50;;;2.00;98.20;;;;;;6064221;23;20062;-81
2023/12/07 10:08:35;;;;;;;14.98;3.63;;;2.00;98.20;;;;;;6065909;23;20006;-81
2023/12/07 10:11:14;;;;;;;5.72;3.55;;;2.00;98.20;;;;;;6064410;23;20010;-81
2023/12/07 10:13:40;;;;;;;5.20;2.60;;;2.00;98.10;;;;;;6067394;23;20007;-82
2023/12/07 10:16:14;;;;;;;6.75;3.17;;;2.00;98.00;;;;;;6065784;23;20026;-80
2023/12/07 10:18:40;;;;;;;4.57;2.85;;;2.00;98.10;;;;;;6067929;23;19999;-82
2023/12/07 10:21:07;;;;;;;11.05;2.65;;;1.90;98.10;;;;;;6066174;23;20006;-83
2023/12/07 10:23:33;;;;;;;5.72;3.17;;;1.90;98.20;;;;;;6042209;23;20022;-81
2023/12/07 10:26:01;;;;;;;4.70;2.40;;;1.90;98.40;;;;;;6070773;23;19986;-82
2023/12/07 10:28:27;;;;;;;4.00;2.30;;;2.00;98.60;;;;;;6044200;23;20037;-82
2023/12/07 10:30:52;;;;;;;8.52;3.75;;;2.10;98.60;;;;;;6067335;23;20428;-82
2023/12/07 10:33:20;;;;;;;5.75;2.97;;;2.10;98.40;;;;;;6041882;23;20034;-80
2023/12/07 10:35:48;;;;;;;7.50;4.03;;;2.10;98.30;;;;;;6043191;23;20452;-80
2023/12/07 10:38:14;;;;;;;7.07;3.33;;;2.00;98.40;;;;;;6067470;23;20017;-83
2023/12/07 10:40:39;;;;;;;6.97;2.72;;;2.10;98.50;;;;;;6067994;23;20003;-83
2023/12/07 10:43:06;;;;;;;5.43;2.88;;;2.10;98.40;;;;;;6042359;23;20038;-82
2023/12/07 10:45:34;;;;;;;6.93;2.50;;;2.10;98.30;;;;;;6042302;23;20057;-80
2023/12/07 10:48:04;;;;;;;4.53;2.60;;;2.10;98.30;;;;;;6068288;23;20009;-81
2023/12/07 10:50:32;;;;;;;11.38;3.47;;;2.10;98.30;;;;;;6068135;23;20031;-83
2023/12/07 10:53:03;;;;;;;6.20;3.03;;;2.20;98.50;;;;;;6068148;23;20500;-83
2023/12/07 10:55:34;;;;;;;5.80;3.10;;;2.20;98.50;;;;;;6045045;23;20003;-83
2023/12/07 10:58:01;;;;;;;6.18;2.60;;;2.20;98.50;;;;;;6060135;23;20033;-80
2023/12/07 11:00:30;;;;;;;8.05;3.30;;;2.20;98.50;;;;;;6078629;23;20471;-80
2023/12/07 11:02:56;;;;;;;7.30;3.08;;;2.20;98.50;;;;;;6045704;23;20039;-80
2023/12/07 11:05:21;;;;;;;14.35;3.70;;;2.20;98.60;;;;;;6044957;23;20010;-80
2023/12/07 11:08:02;;;;;;;5.10;2.70;;;2.30;98.70;;;;;;6069914;23;20040;-81
2023/12/07 11:10:42;;;;;;;6.10;3.10;;;2.30;98.70;;;;;;6070046;23;20078;-79
2023/12/07 11:13:22;;;;;;;5.45;2.80;;;2.30;98.70;;;;;;6044654;23;20640;-82
2023/12/07 11:15:48;;;;;;;5.63;3.10;;;2.30;98.90;;;;;;6044294;23;20007;-82
2023/12/07 11:18:14;;;;;;;7.80;4.07;;;2.30;99.00;;;;;;6069997;23;20101;-80
2023/12/07 11:20:49;;;;;;;7.40;3.58;;;2.30;98.90;;;;;;6045724;23;20010;-83
2023/12/07 11:23:19;;;;;;;5.85;2.80;;;2.30;99.10;;;;;;6064003;23;20043;-79
2023/12/07 11:25:47;;;;;;;6.28;3.22;;;2.40;99.20;;;;;;6070824;23;20013;-80
2023/12/07 11:28:13;;;;;;;7.43;3.78;;;2.40;99.10;;;;;;6064316;23;20357;-83
2023/12/07 11:30:45;;;;;;;8.55;3.83;;;2.60;99.20;;;;;;6064697;23;20491;-82
2023/12/07 11:33:14;;;;;;;;;;;2.40;99.10;;;;;;6023850;23;20066;-85
2023/12/07 11:36:13;;;;;;;6.30;2.92;;;2.50;99.20;;;;;;6037523;23;19906;-82
2023/12/07 11:39:06;;;;;;;14.32;6.43;;;2.50;99.10;;;;;;5975197;23;20010;-81
2023/12/07 11:41:53;;;;;;;10.15;4.47;;;2.60;99.20;;;;;;6035710;23;20007;-82
2023/12/07 11:44:19;;;;;;;9.13;4.13;;;2.60;99.20;;;;;;6036735;23;20007;-84
2023/12/07 11:46:45;;;;;;;6.85;3.38;;;2.70;99.10;;;;;;6037022;23;20022;-80
2023/12/07 11:49:12;;;;;;;7.78;3.47;;;2.80;99.10;;;;;;6035942;23;20268;-79
2023/12/07 11:51:38;;;;;;;6.40;3.03;;;2.90;99.00;;;;;;6036493;23;20437;-81
2023/12/07 11:54:04;;;;;;;8.75;3.33;;;2.90;98.80;;;;;;6038459;23;20015;-82
2023/12/07 11:56:30;;;;;;;13.27;5.63;;;3.00;98.80;;;;;;6036942;23;20083;-83
2023/12/07 11:58:57;;;;;;;12.32;5.15;;;3.00;98.60;;;;;;6036102;23;20540;-82
2023/12/07 12:01:25;;;;;;;12.80;5.07;;;3.10;98.70;;;;;;6036545;23;20571;-82
2023/12/07 12:04:04;;;;;;;11.55;4.82;;;3.20;98.60;;;;;;6038506;23;20006;-80
2023/12/07 12:06:30;;;;;;;7.90;3.63;;;3.10;98.70;;;;;;6037316;23;20376;-81
2023/12/07 12:08:56;;;;;;;12.32;4.47;;;3.10;98.60;;;;;;6035445;23;20063;-84
2023/12/07 12:11:21;;;;;;;12.48;5.50;;;3.10;98.70;;;;;;6037383;23;20003;-81
2023/12/07 12:13:47;;;;;;;14.55;6.30;;;3.10;98.60;;;;;;6036038;23;20025;-81
2023/12/07 12:16:14;;;;;;;12.95;5.72;;;3.20;98.80;;;;;;6036653;23;20003;-82
2023/12/07 12:18:39;;;;;;;11.95;4.97;;;3.10;98.70;;;;;;6038061;23;20003;-83
2023/12/07 12:21:08;;;;;;;9.02;3.97;;;3.20;98.70;;;;;;6037063;23;20044;-83
2023/12/07 12:23:36;;;;;;;9.43;4.35;;;3.20;98.80;;;;;;6059046;23;20013;-82
2023/12/07 12:26:03;;;;;;;11.07;4.90;;;3.20;98.80;;;;;;6044794;23;20006;-81
2023/12/07 12:28:32;;;;;;;10.05;4.43;;;3.20;98.90;;;;;;6044018;23;20029;-83
2023/12/07 12:30:58;;;;;;;11.38;4.47;;;3.20;98.90;;;;;;6044933;23;20007;-84
2023/12/07 12:33:23;;;;;;;12.32;5.53;;;3.30;99.00;;;;;;6044829;23;20158;-83
2023/12/07 12:36:06;;;;;;;11.52;5.10;;;3.30;98.70;;;;;;6045098;23;20039;-85
2023/12/07 12:38:32;;;;;;;12.25;5.30;;;3.20;99.10;;;;;;6070678;23;20345;-84
2023/12/07 12:40:58;;;;;;;14.65;6.07;;;3.20;98.90;;;;;;6045179;23;19999;-83
2023/12/07 12:43:24;;;;;;;13.95;6.25;;;3.30;99.00;;;;;;6071074;23;20333;-84
2023/12/07 12:45:50;;;;;;;15.70;6.93;;;3.10;99.10;;;;;;6070639;23;20014;-82
2023/12/07 12:48:19;;;;;;;14.00;6.03;;;3.20;99.10;;;;;;6072339;23;20002;-84
2023/12/07 12:50:44;;;;;;;16.13;6.85;;;3.20;99.10;;;;;;6045225;23;20034;-84
2023/12/07 12:53:14;;;;;;;15.65;6.53;;;3.20;99.00;;;;;;6044162;23;20007;-81